Anzahl Datensätze: 48
min. Temperatur: 8.4 °C
max. Temperatur: 12.0 °C
max. Windgeschwindigkeit: 25.9 km/h
Niederschlagsumme: 4.8 mm
| Datum |
Zeit |
Temp °C |
Feuchte % |
Taupunkt °C |
Luftdruck hPa |
Wind km/h |
Windrichtung |
Strahlung w/m² |
Niederschlag mm |
|---|---|---|---|---|---|---|---|---|---|
| 16.04.2025 | 00:00 | 12.0 | 94 | 11.1 | 1004.8 | 0.0 | N | 0 | 4.8 |
| 16.04.2025 | 00:30 | 11.9 | 94 | 11.0 | 1005.0 | 0.0 | N | 0 | 0.0 |
| 16.04.2025 | 01:00 | 11.6 | 94 | 10.7 | 1005.0 | 0.0 | N | 0 | 0.0 |
| 16.04.2025 | 01:30 | 11.2 | 94 | 10.3 | 1005.6 | 0.0 | N | 0 | 0.0 |
| 16.04.2025 | 02:00 | 11.1 | 94 | 10.2 | 1005.9 | 0.0 | N | 0 | 0.0 |
| 16.04.2025 | 02:30 | 11.2 | 95 | 10.4 | 1006.0 | 0.0 | NO | 0 | 0.0 |
| 16.04.2025 | 03:00 | 11.1 | 95 | 10.3 | 1005.9 | 0.0 | NO | 0 | 0.0 |
| 16.04.2025 | 03:30 | 11.1 | 95 | 10.3 | 1006.1 | 0.0 | NO | 0 | 0.0 |
| 16.04.2025 | 04:00 | 11.1 | 95 | 10.3 | 1006.0 | 0.0 | NO | 0 | 0.0 |
| 16.04.2025 | 04:30 | 10.9 | 95 | 10.1 | 1005.7 | 0.0 | WNW | 0 | 0.0 |
| 16.04.2025 | 05:00 | 10.6 | 95 | 9.8 | 1006.3 | 1.4 | WNW | 0 | 0.0 |
| 16.04.2025 | 05:30 | 10.6 | 95 | 9.8 | 1006.3 | 0.0 | N | 0 | 0.0 |
| 16.04.2025 | 06:00 | 10.3 | 94 | 9.4 | 1006.2 | 0.0 | WNW | 0 | 0.4 |
| 16.04.2025 | 06:30 | 10.2 | 94 | 9.3 | 1006.8 | 0.0 | WNW | 0 | 0.4 |
| 16.04.2025 | 07:00 | 9.8 | 94 | 8.9 | 1007.6 | 4.7 | WNW | 0 | 0.4 |
| 16.04.2025 | 07:30 | 9.2 | 93 | 8.1 | 1007.4 | 1.4 | NNO | 21 | 1.4 |
| 16.04.2025 | 08:00 | 8.9 | 93 | 7.8 | 1007.7 | 3.2 | NNO | 33 | 1.6 |
| 16.04.2025 | 08:30 | 9.0 | 93 | 7.9 | 1008.6 | 3.2 | WNW | 7 | 1.6 |
| 16.04.2025 | 09:00 | 8.7 | 93 | 7.6 | 1008.5 | 0.0 | WNW | 32 | 2.4 |
| 16.04.2025 | 09:30 | 8.6 | 93 | 7.5 | 1009.3 | 3.2 | WNW | 30 | 2.6 |
| 16.04.2025 | 10:00 | 8.5 | 93 | 7.4 | 1009.5 | 3.2 | NW | 39 | 2.8 |
| 16.04.2025 | 10:30 | 8.4 | 94 | 7.5 | 1009.9 | 1.4 | NNW | 97 | 2.8 |
| 16.04.2025 | 11:00 | 8.6 | 93 | 7.5 | 1010.3 | 3.2 | NW | 97 | 3.0 |
| 16.04.2025 | 11:30 | 8.6 | 93 | 7.5 | 1010.8 | 3.2 | NW | 63 | 3.0 |
| 16.04.2025 | 12:00 | 8.7 | 92 | 7.5 | 1010.8 | 1.4 | WNW | 102 | 3.2 |
| 16.04.2025 | 12:30 | 8.8 | 92 | 7.6 | 1010.8 | 1.4 | WNW | 121 | 3.2 |
| 16.04.2025 | 13:00 | 9.1 | 92 | 7.9 | 1010.9 | 1.4 | NW | 93 | 3.2 |
| 16.04.2025 | 13:30 | 9.1 | 91 | 7.7 | 1011.3 | 1.4 | NW | 132 | 3.2 |
| 16.04.2025 | 14:00 | 9.3 | 90 | 7.7 | 1011.3 | 1.4 | NNO | 76 | 3.2 |
| 16.04.2025 | 14:30 | 9.5 | 89 | 7.8 | 1011.3 | 1.4 | NW | 63 | 3.2 |
| 16.04.2025 | 15:00 | 9.8 | 89 | 8.1 | 1011.3 | 1.4 | NW | 113 | 3.2 |
| 16.04.2025 | 15:30 | 9.9 | 87 | 7.8 | 1011.8 | 3.2 | NW | 93 | 3.2 |
| 16.04.2025 | 16:00 | 10.0 | 87 | 7.9 | 1011.8 | 3.2 | W | 69 | 3.2 |
| 16.04.2025 | 16:30 | 9.8 | 87 | 7.7 | 1012.5 | 3.2 | W | 69 | 3.2 |
| 16.04.2025 | 17:00 | 9.9 | 89 | 8.2 | 1012.2 | 1.4 | W | 51 | 3.2 |
| 16.04.2025 | 17:30 | 10.0 | 88 | 8.1 | 1012.0 | 0.0 | W | 51 | 3.2 |
| 16.04.2025 | 18:00 | 9.9 | 89 | 8.2 | 1011.9 | 0.0 | W | 47 | 3.2 |
| 16.04.2025 | 18:30 | 9.9 | 91 | 8.5 | 1012.1 | 0.0 | W | 49 | 3.2 |
| 16.04.2025 | 19:00 | 10.0 | 91 | 8.6 | 1012.3 | 0.0 | W | 37 | 3.2 |
| 16.04.2025 | 19:30 | 10.1 | 90 | 8.5 | 1012.3 | 0.0 | W | 11 | 3.2 |
| 16.04.2025 | 20:00 | 9.9 | 91 | 8.5 | 1012.6 | 0.0 | W | 0 | 3.2 |
| 16.04.2025 | 20:30 | 9.7 | 92 | 8.5 | 1012.8 | 0.0 | W | 0 | 3.2 |
| 16.04.2025 | 21:00 | 9.5 | 92 | 8.3 | 1012.9 | 0.0 | W | 0 | 3.2 |
| 16.04.2025 | 21:30 | 9.3 | 93 | 8.2 | 1013.2 | 0.0 | W | 0 | 3.2 |
| 16.04.2025 | 22:00 | 9.2 | 93 | 8.1 | 1013.2 | 0.0 | W | 0 | 3.2 |
| 16.04.2025 | 22:30 | 9.1 | 93 | 8.0 | 1013.4 | 0.0 | W | 0 | 3.2 |
| 16.04.2025 | 23:00 | 9.0 | 94 | 8.1 | 1013.2 | 0.0 | W | 0 | 3.2 |
| 16.04.2025 | 23:30 | 8.9 | 94 | 8.0 | 1013.0 | 0.0 | W | 0 | 3.2 |